sensor_id;sensor_type;location;lat;lon;timestamp;P1;durP1;ratioP1;P2;durP2;ratioP2
45114;SDS011;30877;43.706;10.780;2024-01-11T00:01:08;4.38;;;3.00;;
45114;SDS011;30877;43.706;10.780;2024-01-11T00:03:38;5.93;;;3.28;;
45114;SDS011;30877;43.706;10.780;2024-01-11T00:06:10;7.13;;;3.15;;
45114;SDS011;30877;43.706;10.780;2024-01-11T00:08:40;4.60;;;3.30;;
45114;SDS011;30877;43.706;10.780;2024-01-11T00:11:13;5.00;;;3.08;;
45114;SDS011;30877;43.706;10.780;2024-01-11T00:13:44;5.25;;;3.17;;
45114;SDS011;30877;43.706;10.780;2024-01-11T00:16:14;4.63;;;3.08;;
45114;SDS011;30877;43.706;10.780;2024-01-11T00:18:44;4.68;;;3.00;;
45114;SDS011;30877;43.706;10.780;2024-01-11T00:21:15;6.88;;;3.50;;
45114;SDS011;30877;43.706;10.780;2024-01-11T00:23:43;4.70;;;3.30;;
45114;SDS011;30877;43.706;10.780;2024-01-11T00:26:12;4.38;;;3.10;;
45114;SDS011;30877;43.706;10.780;2024-01-11T00:28:40;4.28;;;3.03;;
45114;SDS011;30877;43.706;10.780;2024-01-11T00:31:09;5.03;;;3.25;;
45114;SDS011;30877;43.706;10.780;2024-01-11T00:33:38;3.92;;;2.72;;
45114;SDS011;30877;43.706;10.780;2024-01-11T00:36:07;5.65;;;3.10;;
45114;SDS011;30877;43.706;10.780;2024-01-11T00:38:37;4.15;;;2.72;;
45114;SDS011;30877;43.706;10.780;2024-01-11T00:41:06;5.40;;;2.90;;
45114;SDS011;30877;43.706;10.780;2024-01-11T00:43:35;4.57;;;2.85;;
45114;SDS011;30877;43.706;10.780;2024-01-11T00:46:04;5.05;;;3.33;;
45114;SDS011;30877;43.706;10.780;2024-01-11T00:48:32;3.92;;;2.53;;
45114;SDS011;30877;43.706;10.780;2024-01-11T00:51:01;4.50;;;2.63;;
45114;SDS011;30877;43.706;10.780;2024-01-11T00:53:31;3.63;;;2.50;;
45114;SDS011;30877;43.706;10.780;2024-01-11T00:56:03;3.70;;;2.50;;
45114;SDS011;30877;43.706;10.780;2024-01-11T00:58:32;3.72;;;2.67;;
45114;SDS011;30877;43.706;10.780;2024-01-11T01:01:00;3.72;;;2.70;;
45114;SDS011;30877;43.706;10.780;2024-01-11T01:03:30;3.03;;;2.13;;
45114;SDS011;30877;43.706;10.780;2024-01-11T01:05:58;4.40;;;2.53;;
45114;SDS011;30877;43.706;10.780;2024-01-11T01:08:29;4.70;;;2.60;;
45114;SDS011;30877;43.706;10.780;2024-01-11T01:11:00;3.75;;;2.45;;
45114;SDS011;30877;43.706;10.780;2024-01-11T01:13:30;3.47;;;2.28;;
45114;SDS011;30877;43.706;10.780;2024-01-11T01:15:59;3.88;;;2.50;;
45114;SDS011;30877;43.706;10.780;2024-01-11T01:18:28;4.88;;;2.67;;
45114;SDS011;30877;43.706;10.780;2024-01-11T01:20:56;3.85;;;2.55;;
45114;SDS011;30877;43.706;10.780;2024-01-11T01:23:25;4.72;;;3.00;;
45114;SDS011;30877;43.706;10.780;2024-01-11T01:25:55;4.28;;;2.67;;
45114;SDS011;30877;43.706;10.780;2024-01-11T01:28:24;4.90;;;2.75;;
45114;SDS011;30877;43.706;10.780;2024-01-11T01:30:54;4.60;;;2.22;;
45114;SDS011;30877;43.706;10.780;2024-01-11T01:33:23;4.18;;;2.40;;
45114;SDS011;30877;43.706;10.780;2024-01-11T01:35:53;4.18;;;2.35;;
45114;SDS011;30877;43.706;10.780;2024-01-11T01:38:23;3.97;;;2.47;;
45114;SDS011;30877;43.706;10.780;2024-01-11T01:40:51;5.05;;;2.40;;
45114;SDS011;30877;43.706;10.780;2024-01-11T01:43:20;4.00;;;2.50;;
45114;SDS011;30877;43.706;10.780;2024-01-11T01:45:49;3.72;;;2.55;;
45114;SDS011;30877;43.706;10.780;2024-01-11T01:48:19;4.88;;;2.38;;
45114;SDS011;30877;43.706;10.780;2024-01-11T01:50:49;3.60;;;2.17;;
45114;SDS011;30877;43.706;10.780;2024-01-11T01:53:18;3.42;;;2.50;;
45114;SDS011;30877;43.706;10.780;2024-01-11T01:55:49;3.13;;;2.15;;
45114;SDS011;30877;43.706;10.780;2024-01-11T01:58:21;3.40;;;2.33;;
45114;SDS011;30877;43.706;10.780;2024-01-11T02:00:51;2.50;;;1.98;;
45114;SDS011;30877;43.706;10.780;2024-01-11T02:03:23;3.60;;;2.25;;
45114;SDS011;30877;43.706;10.780;2024-01-11T02:05:54;2.80;;;1.95;;
45114;SDS011;30877;43.706;10.780;2024-01-11T02:08:24;3.50;;;2.33;;
45114;SDS011;30877;43.706;10.780;2024-01-11T02:10:54;3.85;;;2.20;;
45114;SDS011;30877;43.706;10.780;2024-01-11T02:13:24;3.75;;;2.42;;
45114;SDS011;30877;43.706;10.780;2024-01-11T02:15:52;3.00;;;2.35;;
45114;SDS011;30877;43.706;10.780;2024-01-11T02:18:23;4.07;;;2.40;;
45114;SDS011;30877;43.706;10.780;2024-01-11T02:20:51;3.28;;;2.28;;
45114;SDS011;30877;43.706;10.780;2024-01-11T02:23:21;3.70;;;2.50;;
45114;SDS011;30877;43.706;10.780;2024-01-11T02:25:53;3.67;;;2.25;;
45114;SDS011;30877;43.706;10.780;2024-01-11T02:28:22;3.38;;;1.95;;
45114;SDS011;30877;43.706;10.780;2024-01-11T02:30:50;3.00;;;2.10;;
45114;SDS011;30877;43.706;10.780;2024-01-11T02:33:19;4.18;;;2.28;;
45114;SDS011;30877;43.706;10.780;2024-01-11T02:35:48;3.40;;;2.13;;
45114;SDS011;30877;43.706;10.780;2024-01-11T02:38:18;2.42;;;1.75;;
45114;SDS011;30877;43.706;10.780;2024-01-11T02:40:46;2.53;;;1.88;;
45114;SDS011;30877;43.706;10.780;2024-01-11T02:43:18;3.53;;;2.13;;
45114;SDS011;30877;43.706;10.780;2024-01-11T02:45:48;4.43;;;2.40;;
45114;SDS011;30877;43.706;10.780;2024-01-11T02:48:17;3.88;;;2.70;;
45114;SDS011;30877;43.706;10.780;2024-01-11T02:50:46;4.03;;;2.53;;
45114;SDS011;30877;43.706;10.780;2024-01-11T02:53:15;4.10;;;2.25;;
45114;SDS011;30877;43.706;10.780;2024-01-11T02:55:45;4.45;;;2.30;;
45114;SDS011;30877;43.706;10.780;2024-01-11T02:58:15;2.90;;;1.92;;
45114;SDS011;30877;43.706;10.780;2024-01-11T03:00:46;4.03;;;2.35;;
45114;SDS011;30877;43.706;10.780;2024-01-11T03:03:14;4.40;;;2.45;;
45114;SDS011;30877;43.706;10.780;2024-01-11T03:05:43;4.07;;;2.35;;
45114;SDS011;30877;43.706;10.780;2024-01-11T03:08:12;3.75;;;2.20;;
45114;SDS011;30877;43.706;10.780;2024-01-11T03:10:41;3.40;;;2.08;;
45114;SDS011;30877;43.706;10.780;2024-01-11T03:13:10;4.22;;;2.50;;
45114;SDS011;30877;43.706;10.780;2024-01-11T03:15:39;3.03;;;2.28;;
45114;SDS011;30877;43.706;10.780;2024-01-11T03:18:10;3.08;;;2.20;;
45114;SDS011;30877;43.706;10.780;2024-01-11T03:20:39;4.10;;;2.65;;
45114;SDS011;30877;43.706;10.780;2024-01-11T03:23:07;3.70;;;2.20;;
45114;SDS011;30877;43.706;10.780;2024-01-11T03:25:36;4.15;;;2.45;;
45114;SDS011;30877;43.706;10.780;2024-01-11T03:28:05;4.43;;;2.40;;
45114;SDS011;30877;43.706;10.780;2024-01-11T03:30:33;3.22;;;2.20;;
45114;SDS011;30877;43.706;10.780;2024-01-11T03:33:04;3.63;;;2.00;;
45114;SDS011;30877;43.706;10.780;2024-01-11T03:35:35;3.63;;;2.58;;
45114;SDS011;30877;43.706;10.780;2024-01-11T03:38:07;3.20;;;2.20;;
45114;SDS011;30877;43.706;10.780;2024-01-11T03:40:36;3.65;;;2.53;;
45114;SDS011;30877;43.706;10.780;2024-01-11T03:43:06;4.30;;;2.33;;
45114;SDS011;30877;43.706;10.780;2024-01-11T03:45:35;4.45;;;2.85;;
45114;SDS011;30877;43.706;10.780;2024-01-11T03:48:05;3.90;;;2.20;;
45114;SDS011;30877;43.706;10.780;2024-01-11T03:50:35;4.70;;;2.83;;
45114;SDS011;30877;43.706;10.780;2024-01-11T03:53:04;3.38;;;2.13;;
45114;SDS011;30877;43.706;10.780;2024-01-11T03:55:34;4.03;;;2.33;;
45114;SDS011;30877;43.706;10.780;2024-01-11T03:58:02;4.93;;;2.38;;
45114;SDS011;30877;43.706;10.780;2024-01-11T04:00:31;3.70;;;2.13;;
45114;SDS011;30877;43.706;10.780;2024-01-11T04:03:00;3.38;;;2.30;;
45114;SDS011;30877;43.706;10.780;2024-01-11T04:05:29;3.45;;;2.40;;
45114;SDS011;30877;43.706;10.780;2024-01-11T04:08:02;3.85;;;2.40;;
45114;SDS011;30877;43.706;10.780;2024-01-11T04:10:33;2.88;;;2.17;;
45114;SDS011;30877;43.706;10.780;2024-01-11T04:13:04;5.03;;;3.08;;
45114;SDS011;30877;43.706;10.780;2024-01-11T04:15:35;3.90;;;2.35;;
45114;SDS011;30877;43.706;10.780;2024-01-11T04:18:07;3.28;;;2.42;;
45114;SDS011;30877;43.706;10.780;2024-01-11T04:20:36;3.38;;;2.30;;
45114;SDS011;30877;43.706;10.780;2024-01-11T04:23:11;4.28;;;2.88;;
45114;SDS011;30877;43.706;10.780;2024-01-11T04:26:25;4.18;;;2.63;;
45114;SDS011;30877;43.706;10.780;2024-01-11T04:32:33;4.10;;;2.63;;
45114;SDS011;30877;43.706;10.780;2024-01-11T04:35:16;4.03;;;2.38;;
45114;SDS011;30877;43.706;10.780;2024-01-11T04:37:49;5.00;;;3.00;;
45114;SDS011;30877;43.706;10.780;2024-01-11T04:40:19;6.00;;;3.30;;
45114;SDS011;30877;43.706;10.780;2024-01-11T04:42:51;4.63;;;2.75;;
45114;SDS011;30877;43.706;10.780;2024-01-11T04:45:20;4.38;;;2.58;;
45114;SDS011;30877;43.706;10.780;2024-01-11T04:47:52;4.93;;;3.03;;
45114;SDS011;30877;43.706;10.780;2024-01-11T04:50:22;4.50;;;2.78;;
45114;SDS011;30877;43.706;10.780;2024-01-11T04:52:54;5.07;;;3.08;;
45114;SDS011;30877;43.706;10.780;2024-01-11T05:03:03;4.03;;;2.90;;
45114;SDS011;30877;43.706;10.780;2024-01-11T05:05:45;5.25;;;3.30;;
45114;SDS011;30877;43.706;10.780;2024-01-11T05:13:11;4.82;;;3.08;;
45114;SDS011;30877;43.706;10.780;2024-01-11T05:15:40;4.65;;;2.88;;
45114;SDS011;30877;43.706;10.780;2024-01-11T05:22:45;3.97;;;2.67;;
45114;SDS011;30877;43.706;10.780;2024-01-11T05:30:57;6.10;;;3.70;;
45114;SDS011;30877;43.706;10.780;2024-01-11T05:33:21;8.30;;;4.90;;
45114;SDS011;30877;43.706;10.780;2024-01-11T05:36:14;7.30;;;4.43;;
45114;SDS011;30877;43.706;10.780;2024-01-11T05:38:44;6.38;;;4.07;;
45114;SDS011;30877;43.706;10.780;2024-01-11T05:41:20;5.32;;;3.60;;
45114;SDS011;30877;43.706;10.780;2024-01-11T05:43:55;5.10;;;3.35;;
45114;SDS011;30877;43.706;10.780;2024-01-11T05:46:24;6.15;;;4.10;;
45114;SDS011;30877;43.706;10.780;2024-01-11T05:48:52;4.63;;;3.28;;
45114;SDS011;30877;43.706;10.780;2024-01-11T05:51:21;7.72;;;3.05;;
45114;SDS011;30877;43.706;10.780;2024-01-11T05:53:52;5.43;;;3.30;;
45114;SDS011;30877;43.706;10.780;2024-01-11T05:56:25;4.72;;;3.38;;
45114;SDS011;30877;43.706;10.780;2024-01-11T05:59:13;4.97;;;3.30;;
45114;SDS011;30877;43.706;10.780;2024-01-11T06:01:48;5.65;;;3.50;;
45114;SDS011;30877;43.706;10.780;2024-01-11T06:04:17;4.28;;;3.30;;
45114;SDS011;30877;43.706;10.780;2024-01-11T06:06:46;5.50;;;3.35;;
45114;SDS011;30877;43.706;10.780;2024-01-11T06:09:16;5.97;;;2.80;;
45114;SDS011;30877;43.706;10.780;2024-01-11T06:11:56;5.88;;;2.75;;
45114;SDS011;30877;43.706;10.780;2024-01-11T06:14:28;4.80;;;3.00;;
45114;SDS011;30877;43.706;10.780;2024-01-11T06:17:12;5.18;;;3.30;;
45114;SDS011;30877;43.706;10.780;2024-01-11T06:20:33;5.38;;;3.22;;
45114;SDS011;30877;43.706;10.780;2024-01-11T06:23:03;5.13;;;2.83;;
45114;SDS011;30877;43.706;10.780;2024-01-11T06:25:34;5.68;;;3.38;;
45114;SDS011;30877;43.706;10.780;2024-01-11T06:28:13;5.47;;;3.05;;
45114;SDS011;30877;43.706;10.780;2024-01-11T06:30:45;5.65;;;3.33;;
45114;SDS011;30877;43.706;10.780;2024-01-11T06:33:32;4.38;;;3.10;;
45114;SDS011;30877;43.706;10.780;2024-01-11T06:36:14;5.70;;;3.28;;
45114;SDS011;30877;43.706;10.780;2024-01-11T06:38:48;6.25;;;3.25;;
45114;SDS011;30877;43.706;10.780;2024-01-11T06:46:21;6.00;;;3.05;;
45114;SDS011;30877;43.706;10.780;2024-01-11T06:48:51;4.82;;;2.97;;
45114;SDS011;30877;43.706;10.780;2024-01-11T06:51:20;5.40;;;3.30;;
45114;SDS011;30877;43.706;10.780;2024-01-11T06:53:55;6.95;;;3.50;;
45114;SDS011;30877;43.706;10.780;2024-01-11T06:56:32;4.68;;;2.95;;
45114;SDS011;30877;43.706;10.780;2024-01-11T06:59:02;5.40;;;3.00;;
45114;SDS011;30877;43.706;10.780;2024-01-11T07:05:54;7.18;;;3.40;;
45114;SDS011;30877;43.706;10.780;2024-01-11T07:09:37;4.78;;;3.10;;
45114;SDS011;30877;43.706;10.780;2024-01-11T07:12:23;5.32;;;3.70;;
45114;SDS011;30877;43.706;10.780;2024-01-11T07:15:56;5.60;;;3.65;;
45114;SDS011;30877;43.706;10.780;2024-01-11T07:29:15;5.88;;;3.17;;
45114;SDS011;30877;43.706;10.780;2024-01-11T07:34:45;5.65;;;3.65;;
45114;SDS011;30877;43.706;10.780;2024-01-11T07:37:14;5.82;;;3.47;;
45114;SDS011;30877;43.706;10.780;2024-01-11T07:43:35;7.25;;;3.58;;
45114;SDS011;30877;43.706;10.780;2024-01-11T07:46:21;7.38;;;3.40;;
45114;SDS011;30877;43.706;10.780;2024-01-11T07:49:04;6.20;;;3.42;;
45114;SDS011;30877;43.706;10.780;2024-01-11T07:51:34;6.55;;;3.83;;
45114;SDS011;30877;43.706;10.780;2024-01-11T07:54:03;5.65;;;3.10;;
45114;SDS011;30877;43.706;10.780;2024-01-11T07:56:32;5.38;;;3.47;;
45114;SDS011;30877;43.706;10.780;2024-01-11T07:59:02;6.47;;;3.28;;
45114;SDS011;30877;43.706;10.780;2024-01-11T08:01:34;5.65;;;3.58;;
45114;SDS011;30877;43.706;10.780;2024-01-11T08:04:03;7.03;;;3.58;;
45114;SDS011;30877;43.706;10.780;2024-01-11T08:06:32;6.18;;;3.35;;
45114;SDS011;30877;43.706;10.780;2024-01-11T08:09:01;5.78;;;3.47;;
45114;SDS011;30877;43.706;10.780;2024-01-11T08:11:34;5.90;;;3.80;;
45114;SDS011;30877;43.706;10.780;2024-01-11T08:14:23;5.32;;;3.38;;
45114;SDS011;30877;43.706;10.780;2024-01-11T08:17:00;8.05;;;4.00;;
45114;SDS011;30877;43.706;10.780;2024-01-11T08:19:33;6.07;;;3.22;;
45114;SDS011;30877;43.706;10.780;2024-01-11T08:24:55;4.97;;;3.13;;
45114;SDS011;30877;43.706;10.780;2024-01-11T08:27:27;4.85;;;2.95;;
45114;SDS011;30877;43.706;10.780;2024-01-11T08:45:00;5.22;;;2.95;;
45114;SDS011;30877;43.706;10.780;2024-01-11T08:47:36;5.10;;;3.28;;
45114;SDS011;30877;43.706;10.780;2024-01-11T08:50:06;5.05;;;3.47;;
45114;SDS011;30877;43.706;10.780;2024-01-11T08:52:36;5.75;;;3.33;;
45114;SDS011;30877;43.706;10.780;2024-01-11T08:55:07;4.28;;;3.00;;
45114;SDS011;30877;43.706;10.780;2024-01-11T08:57:36;5.22;;;3.15;;
45114;SDS011;30877;43.706;10.780;2024-01-11T09:00:07;5.30;;;3.50;;
45114;SDS011;30877;43.706;10.780;2024-01-11T09:02:39;5.50;;;3.33;;
45114;SDS011;30877;43.706;10.780;2024-01-11T09:05:09;5.60;;;3.08;;
45114;SDS011;30877;43.706;10.780;2024-01-11T09:10:35;4.60;;;2.75;;
45114;SDS011;30877;43.706;10.780;2024-01-11T09:16:04;5.25;;;3.38;;
45114;SDS011;30877;43.706;10.780;2024-01-11T09:18:45;5.90;;;3.30;;
45114;SDS011;30877;43.706;10.780;2024-01-11T09:21:48;3.67;;;2.53;;
45114;SDS011;30877;43.706;10.780;2024-01-11T09:24:21;6.57;;;3.30;;
45114;SDS011;30877;43.706;10.780;2024-01-11T09:26:50;6.05;;;3.35;;
45114;SDS011;30877;43.706;10.780;2024-01-11T09:29:20;3.20;;;2.35;;
45114;SDS011;30877;43.706;10.780;2024-01-11T09:31:50;3.50;;;2.10;;
45114;SDS011;30877;43.706;10.780;2024-01-11T09:34:20;4.53;;;2.05;;
45114;SDS011;30877;43.706;10.780;2024-01-11T09:36:49;3.45;;;2.00;;
45114;SDS011;30877;43.706;10.780;2024-01-11T09:39:19;4.30;;;2.28;;
45114;SDS011;30877;43.706;10.780;2024-01-11T09:41:50;2.97;;;1.90;;
45114;SDS011;30877;43.706;10.780;2024-01-11T09:44:29;2.63;;;1.90;;
45114;SDS011;30877;43.706;10.780;2024-01-11T09:48:25;2.55;;;1.60;;
45114;SDS011;30877;43.706;10.780;2024-01-11T09:50:56;2.40;;;1.73;;
45114;SDS011;30877;43.706;10.780;2024-01-11T09:53:27;2.83;;;1.80;;
45114;SDS011;30877;43.706;10.780;2024-01-11T09:56:21;3.13;;;2.00;;
45114;SDS011;30877;43.706;10.780;2024-01-11T09:58:51;2.47;;;1.70;;
45114;SDS011;30877;43.706;10.780;2024-01-11T10:01:20;2.85;;;1.88;;
45114;SDS011;30877;43.706;10.780;2024-01-11T10:03:52;3.25;;;2.15;;
45114;SDS011;30877;43.706;10.780;2024-01-11T10:06:21;2.33;;;1.70;;
45114;SDS011;30877;43.706;10.780;2024-01-11T10:08:53;4.15;;;1.90;;
45114;SDS011;30877;43.706;10.780;2024-01-11T10:11:22;2.97;;;1.98;;
45114;SDS011;30877;43.706;10.780;2024-01-11T10:14:06;3.35;;;2.15;;
45114;SDS011;30877;43.706;10.780;2024-01-11T10:22:24;4.27;;;2.00;;
45114;SDS011;30877;43.706;10.780;2024-01-11T10:25:07;3.13;;;2.00;;
45114;SDS011;30877;43.706;10.780;2024-01-11T10:27:39;3.78;;;1.98;;
45114;SDS011;30877;43.706;10.780;2024-01-11T10:30:12;3.58;;;2.22;;
45114;SDS011;30877;43.706;10.780;2024-01-11T10:32:45;2.55;;;1.85;;
45114;SDS011;30877;43.706;10.780;2024-01-11T10:35:15;4.20;;;2.08;;
45114;SDS011;30877;43.706;10.780;2024-01-11T10:37:49;3.45;;;1.70;;
45114;SDS011;30877;43.706;10.780;2024-01-11T10:40:25;3.30;;;2.20;;
45114;SDS011;30877;43.706;10.780;2024-01-11T10:42:58;2.67;;;1.80;;
45114;SDS011;30877;43.706;10.780;2024-01-11T10:45:29;3.45;;;1.67;;
45114;SDS011;30877;43.706;10.780;2024-01-11T10:48:12;4.07;;;2.03;;
45114;SDS011;30877;43.706;10.780;2024-01-11T10:50:44;2.97;;;1.70;;
45114;SDS011;30877;43.706;10.780;2024-01-11T11:00:36;3.15;;;1.52;;
45114;SDS011;30877;43.706;10.780;2024-01-11T11:03:05;2.55;;;1.63;;
45114;SDS011;30877;43.706;10.780;2024-01-11T11:05:38;2.55;;;1.55;;
45114;SDS011;30877;43.706;10.780;2024-01-11T11:08:15;1.67;;;1.08;;
45114;SDS011;30877;43.706;10.780;2024-01-11T11:10:48;2.40;;;1.30;;
45114;SDS011;30877;43.706;10.780;2024-01-11T11:13:20;1.77;;;1.35;;
45114;SDS011;30877;43.706;10.780;2024-01-11T11:16:14;2.28;;;1.20;;
45114;SDS011;30877;43.706;10.780;2024-01-11T11:18:55;1.50;;;1.10;;
45114;SDS011;30877;43.706;10.780;2024-01-11T11:21:24;3.22;;;1.20;;
45114;SDS011;30877;43.706;10.780;2024-01-11T11:23:56;2.30;;;1.00;;
45114;SDS011;30877;43.706;10.780;2024-01-11T11:26:26;1.63;;;1.08;;
45114;SDS011;30877;43.706;10.780;2024-01-11T11:28:57;2.45;;;1.02;;
45114;SDS011;30877;43.706;10.780;2024-01-11T11:31:37;2.33;;;1.42;;
45114;SDS011;30877;43.706;10.780;2024-01-11T11:34:10;2.60;;;1.40;;
45114;SDS011;30877;43.706;10.780;2024-01-11T11:36:40;1.88;;;1.15;;
45114;SDS011;30877;43.706;10.780;2024-01-11T11:39:11;1.92;;;0.98;;
45114;SDS011;30877;43.706;10.780;2024-01-11T11:41:42;1.67;;;1.00;;
45114;SDS011;30877;43.706;10.780;2024-01-11T11:44:35;1.63;;;1.10;;
45114;SDS011;30877;43.706;10.780;2024-01-11T11:47:21;1.42;;;0.90;;
45114;SDS011;30877;43.706;10.780;2024-01-11T11:50:04;1.70;;;1.10;;
45114;SDS011;30877;43.706;10.780;2024-01-11T11:52:39;1.75;;;1.10;;
45114;SDS011;30877;43.706;10.780;2024-01-11T11:55:10;1.55;;;1.05;;
45114;SDS011;30877;43.706;10.780;2024-01-11T11:57:40;1.60;;;1.10;;
45114;SDS011;30877;43.706;10.780;2024-01-11T12:00:57;5.22;;;1.30;;
45114;SDS011;30877;43.706;10.780;2024-01-11T12:03:47;1.52;;;1.13;;
45114;SDS011;30877;43.706;10.780;2024-01-11T12:06:19;2.22;;;1.20;;
45114;SDS011;30877;43.706;10.780;2024-01-11T12:08:53;2.80;;;1.50;;
45114;SDS011;30877;43.706;10.780;2024-01-11T12:11:24;1.58;;;1.17;;
45114;SDS011;30877;43.706;10.780;2024-01-11T12:13:54;2.72;;;1.30;;
45114;SDS011;30877;43.706;10.780;2024-01-11T12:17:00;1.80;;;1.23;;
45114;SDS011;30877;43.706;10.780;2024-01-11T12:20:17;1.92;;;1.20;;
45114;SDS011;30877;43.706;10.780;2024-01-11T12:22:48;1.80;;;1.00;;
45114;SDS011;30877;43.706;10.780;2024-01-11T12:25:17;1.48;;;0.85;;
45114;SDS011;30877;43.706;10.780;2024-01-11T12:27:46;1.17;;;0.82;;
45114;SDS011;30877;43.706;10.780;2024-01-11T12:30:16;3.00;;;1.38;;
45114;SDS011;30877;43.706;10.780;2024-01-11T12:32:47;1.98;;;1.00;;
45114;SDS011;30877;43.706;10.780;2024-01-11T12:35:22;1.42;;;1.15;;
45114;SDS011;30877;43.706;10.780;2024-01-11T12:37:52;1.15;;;0.80;;
45114;SDS011;30877;43.706;10.780;2024-01-11T12:40:22;1.48;;;0.95;;
45114;SDS011;30877;43.706;10.780;2024-01-11T12:42:55;1.15;;;0.90;;
45114;SDS011;30877;43.706;10.780;2024-01-11T12:45:26;1.92;;;1.17;;
45114;SDS011;30877;43.706;10.780;2024-01-11T12:48:15;2.92;;;1.73;;
45114;SDS011;30877;43.706;10.780;2024-01-11T12:50:46;1.58;;;1.00;;
45114;SDS011;30877;43.706;10.780;2024-01-11T12:53:15;2.15;;;1.00;;
45114;SDS011;30877;43.706;10.780;2024-01-11T12:56:02;1.95;;;1.55;;
45114;SDS011;30877;43.706;10.780;2024-01-11T12:58:45;1.50;;;1.08;;
45114;SDS011;30877;43.706;10.780;2024-01-11T13:01:14;1.23;;;0.90;;
45114;SDS011;30877;43.706;10.780;2024-01-11T13:03:48;1.85;;;1.00;;
45114;SDS011;30877;43.706;10.780;2024-01-11T13:06:17;1.63;;;1.40;;
45114;SDS011;30877;43.706;10.780;2024-01-11T13:12:42;2.20;;;1.38;;
45114;SDS011;30877;43.706;10.780;2024-01-11T13:15:35;1.70;;;1.10;;
45114;SDS011;30877;43.706;10.780;2024-01-11T13:18:04;1.80;;;1.40;;
45114;SDS011;30877;43.706;10.780;2024-01-11T13:20:36;1.80;;;1.20;;
45114;SDS011;30877;43.706;10.780;2024-01-11T13:26:06;1.77;;;1.27;;
45114;SDS011;30877;43.706;10.780;2024-01-11T13:28:36;1.13;;;0.80;;
45114;SDS011;30877;43.706;10.780;2024-01-11T13:31:06;1.35;;;1.00;;
45114;SDS011;30877;43.706;10.780;2024-01-11T13:34:02;1.58;;;0.93;;
45114;SDS011;30877;43.706;10.780;2024-01-11T13:36:32;1.25;;;0.73;;
45114;SDS011;30877;43.706;10.780;2024-01-11T13:39:02;1.50;;;1.00;;
45114;SDS011;30877;43.706;10.780;2024-01-11T13:41:31;2.30;;;1.40;;
45114;SDS011;30877;43.706;10.780;2024-01-11T13:43:59;1.60;;;1.10;;
45114;SDS011;30877;43.706;10.780;2024-01-11T13:46:29;1.88;;;1.30;;
45114;SDS011;30877;43.706;10.780;2024-01-11T13:48:58;2.40;;;1.20;;
45114;SDS011;30877;43.706;10.780;2024-01-11T13:51:27;2.42;;;1.63;;
45114;SDS011;30877;43.706;10.780;2024-01-11T13:54:01;1.95;;;1.30;;
45114;SDS011;30877;43.706;10.780;2024-01-11T13:56:30;1.88;;;1.27;;
45114;SDS011;30877;43.706;10.780;2024-01-11T13:59:00;2.58;;;1.60;;
45114;SDS011;30877;43.706;10.780;2024-01-11T14:01:29;3.53;;;1.40;;
45114;SDS011;30877;43.706;10.780;2024-01-11T14:03:57;2.33;;;1.55;;
45114;SDS011;30877;43.706;10.780;2024-01-11T14:06:26;2.13;;;1.38;;
45114;SDS011;30877;43.706;10.780;2024-01-11T14:08:55;2.70;;;1.45;;
45114;SDS011;30877;43.706;10.780;2024-01-11T14:11:25;2.72;;;1.83;;
45114;SDS011;30877;43.706;10.780;2024-01-11T14:13:56;1.52;;;1.13;;
45114;SDS011;30877;43.706;10.780;2024-01-11T14:16:25;1.55;;;1.15;;
45114;SDS011;30877;43.706;10.780;2024-01-11T14:18:55;2.45;;;1.20;;
45114;SDS011;30877;43.706;10.780;2024-01-11T14:21:24;2.67;;;1.40;;
45114;SDS011;30877;43.706;10.780;2024-01-11T14:23:52;2.50;;;1.70;;
45114;SDS011;30877;43.706;10.780;2024-01-11T14:26:21;4.22;;;2.17;;
45114;SDS011;30877;43.706;10.780;2024-01-11T14:28:52;6.22;;;3.00;;
45114;SDS011;30877;43.706;10.780;2024-01-11T14:31:21;4.70;;;2.38;;
45114;SDS011;30877;43.706;10.780;2024-01-11T14:33:50;5.90;;;3.53;;
45114;SDS011;30877;43.706;10.780;2024-01-11T14:36:20;4.50;;;2.60;;
45114;SDS011;30877;43.706;10.780;2024-01-11T14:38:48;4.68;;;2.30;;
45114;SDS011;30877;43.706;10.780;2024-01-11T14:41:17;3.90;;;2.47;;
45114;SDS011;30877;43.706;10.780;2024-01-11T14:43:47;4.43;;;2.08;;
45114;SDS011;30877;43.706;10.780;2024-01-11T14:46:17;4.13;;;2.42;;
45114;SDS011;30877;43.706;10.780;2024-01-11T14:48:45;4.68;;;2.60;;
45114;SDS011;30877;43.706;10.780;2024-01-11T14:51:14;2.85;;;1.73;;
45114;SDS011;30877;43.706;10.780;2024-01-11T14:53:43;2.38;;;1.55;;
45114;SDS011;30877;43.706;10.780;2024-01-11T14:56:13;3.08;;;2.10;;
45114;SDS011;30877;43.706;10.780;2024-01-11T14:58:41;3.65;;;2.38;;
45114;SDS011;30877;43.706;10.780;2024-01-11T15:01:12;2.00;;;1.27;;
45114;SDS011;30877;43.706;10.780;2024-01-11T15:03:42;2.15;;;1.40;;
45114;SDS011;30877;43.706;10.780;2024-01-11T15:06:12;2.03;;;1.40;;
45114;SDS011;30877;43.706;10.780;2024-01-11T15:08:41;2.88;;;1.90;;
45114;SDS011;30877;43.706;10.780;2024-01-11T15:11:09;1.98;;;1.23;;
45114;SDS011;30877;43.706;10.780;2024-01-11T15:13:41;2.00;;;1.40;;
45114;SDS011;30877;43.706;10.780;2024-01-11T15:16:09;3.42;;;1.48;;
45114;SDS011;30877;43.706;10.780;2024-01-11T15:18:38;2.00;;;1.63;;
45114;SDS011;30877;43.706;10.780;2024-01-11T15:21:09;2.90;;;1.85;;
45114;SDS011;30877;43.706;10.780;2024-01-11T15:23:37;2.70;;;1.90;;
45114;SDS011;30877;43.706;10.780;2024-01-11T15:26:08;2.70;;;1.77;;
45114;SDS011;30877;43.706;10.780;2024-01-11T15:28:36;3.35;;;1.90;;
45114;SDS011;30877;43.706;10.780;2024-01-11T15:31:04;2.78;;;1.80;;
45114;SDS011;30877;43.706;10.780;2024-01-11T15:33:33;2.65;;;1.60;;
45114;SDS011;30877;43.706;10.780;2024-01-11T15:36:03;7.75;;;5.22;;
45114;SDS011;30877;43.706;10.780;2024-01-11T15:38:34;5.38;;;3.92;;
45114;SDS011;30877;43.706;10.780;2024-01-11T15:41:03;4.45;;;2.85;;
45114;SDS011;30877;43.706;10.780;2024-01-11T15:43:32;3.65;;;2.90;;
45114;SDS011;30877;43.706;10.780;2024-01-11T15:46:02;6.00;;;3.83;;
45114;SDS011;30877;43.706;10.780;2024-01-11T15:48:32;5.43;;;4.38;;
45114;SDS011;30877;43.706;10.780;2024-01-11T15:51:01;5.55;;;3.20;;
45114;SDS011;30877;43.706;10.780;2024-01-11T15:53:31;4.75;;;3.28;;
45114;SDS011;30877;43.706;10.780;2024-01-11T15:56:01;4.78;;;2.60;;
45114;SDS011;30877;43.706;10.780;2024-01-11T15:58:31;4.05;;;2.90;;
45114;SDS011;30877;43.706;10.780;2024-01-11T16:00:59;4.93;;;2.92;;
45114;SDS011;30877;43.706;10.780;2024-01-11T16:03:27;4.88;;;3.10;;
45114;SDS011;30877;43.706;10.780;2024-01-11T16:05:56;4.80;;;2.90;;
45114;SDS011;30877;43.706;10.780;2024-01-11T16:08:24;5.85;;;3.70;;
45114;SDS011;30877;43.706;10.780;2024-01-11T16:10:53;6.70;;;4.13;;
45114;SDS011;30877;43.706;10.780;2024-01-11T16:13:23;5.60;;;3.72;;
45114;SDS011;30877;43.706;10.780;2024-01-11T16:15:54;5.35;;;3.53;;
45114;SDS011;30877;43.706;10.780;2024-01-11T16:18:23;4.93;;;3.58;;
45114;SDS011;30877;43.706;10.780;2024-01-11T16:20:54;6.15;;;3.33;;
45114;SDS011;30877;43.706;10.780;2024-01-11T16:23:23;4.72;;;3.03;;
45114;SDS011;30877;43.706;10.780;2024-01-11T16:25:51;6.03;;;3.60;;
45114;SDS011;30877;43.706;10.780;2024-01-11T16:28:21;6.63;;;4.47;;
45114;SDS011;30877;43.706;10.780;2024-01-11T16:30:52;6.25;;;3.60;;
45114;SDS011;30877;43.706;10.780;2024-01-11T16:33:22;6.40;;;4.53;;
45114;SDS011;30877;43.706;10.780;2024-01-11T16:35:53;5.07;;;3.05;;
45114;SDS011;30877;43.706;10.780;2024-01-11T16:38:25;4.93;;;3.35;;
45114;SDS011;30877;43.706;10.780;2024-01-11T16:40:54;4.45;;;3.72;;
45114;SDS011;30877;43.706;10.780;2024-01-11T16:43:24;7.15;;;4.20;;